createdAt,value
2017-07-24T00:00:12.562Z,0
2017-07-24T00:01:13.803Z,0
2017-07-24T00:02:15.061Z,0
2017-07-24T00:03:16.316Z,0
2017-07-24T00:04:17.561Z,0
2017-07-24T00:05:18.809Z,0
2017-07-24T00:06:20.041Z,0
2017-07-24T00:07:21.333Z,0
2017-07-24T00:08:22.591Z,0
2017-07-24T00:09:23.923Z,0
2017-07-24T00:10:25.158Z,0
2017-07-24T00:11:26.400Z,0
2017-07-24T00:12:27.636Z,0
2017-07-24T00:13:28.968Z,0
2017-07-24T00:14:30.208Z,0
2017-07-24T00:15:31.449Z,0
2017-07-24T00:16:32.707Z,0
2017-07-24T00:17:33.936Z,0
2017-07-24T00:18:35.196Z,0
2017-07-24T00:19:36.494Z,0
2017-07-24T00:20:37.726Z,0
2017-07-24T00:21:38.968Z,0
2017-07-24T00:22:40.205Z,0
2017-07-24T00:23:41.446Z,0
2017-07-24T00:24:42.763Z,0
2017-07-24T00:25:43.994Z,0
2017-07-24T00:26:45.312Z,0
2017-07-24T00:27:46.654Z,0
2017-07-24T00:28:47.893Z,0
2017-07-24T00:29:49.230Z,0
2017-07-24T00:30:50.617Z,0
2017-07-24T00:31:51.764Z,0
2017-07-24T00:32:53.001Z,0
2017-07-24T00:33:54.340Z,0
2017-07-24T00:34:55.577Z,0
2017-07-24T00:35:56.828Z,0
2017-07-24T00:36:58.078Z,0
2017-07-24T00:37:59.333Z,0
2017-07-24T00:39:00.600Z,0
2017-07-24T00:40:01.860Z,0
2017-07-24T00:41:03.152Z,0
2017-07-24T00:42:04.384Z,0
2017-07-24T00:43:05.617Z,0
2017-07-24T00:44:06.946Z,0
2017-07-24T00:45:08.272Z,0
2017-07-24T00:46:09.554Z,0
2017-07-24T00:47:10.811Z,0
2017-07-24T00:48:12.042Z,0
2017-07-24T00:49:13.276Z,0
2017-07-24T00:50:14.535Z,0
2017-07-24T00:51:15.760Z,0
2017-07-24T00:52:17.015Z,0
2017-07-24T00:53:18.252Z,0
2017-07-24T00:54:19.497Z,0
2017-07-24T00:55:20.739Z,0
2017-07-24T00:56:21.985Z,0
2017-07-24T00:57:23.248Z,0
2017-07-24T00:58:24.645Z,0
2017-07-24T00:59:25.874Z,0
2017-07-24T01:00:27.313Z,0
2017-07-24T01:01:28.550Z,0
2017-07-24T01:02:29.779Z,0
2017-07-24T01:03:31.032Z,0
2017-07-24T01:04:32.283Z,0
2017-07-24T01:05:33.620Z,0
2017-07-24T01:06:34.857Z,0
2017-07-24T01:07:36.101Z,0
2017-07-24T01:08:37.338Z,0
2017-07-24T01:09:38.607Z,0
2017-07-24T01:10:39.857Z,0
2017-07-24T01:11:41.097Z,0
2017-07-24T01:12:42.333Z,0
2017-07-24T01:13:43.571Z,0
2017-07-24T01:14:44.832Z,0
2017-07-24T01:15:46.064Z,0
2017-07-24T01:16:47.306Z,0
2017-07-24T01:17:48.608Z,0
2017-07-24T01:18:49.845Z,0
2017-07-24T01:19:51.132Z,0
2017-07-24T01:20:52.375Z,0
2017-07-24T01:21:53.612Z,0
2017-07-24T01:22:54.852Z,0
2017-07-24T01:23:56.107Z,0
2017-07-24T01:24:57.351Z,0
2017-07-24T01:25:58.609Z,0
2017-07-24T01:26:59.849Z,0
2017-07-24T01:28:01.101Z,0
2017-07-24T01:29:02.339Z,0
2017-07-24T01:30:03.591Z,0
2017-07-24T01:31:04.931Z,0
2017-07-24T01:32:06.160Z,0
2017-07-24T01:33:07.404Z,0
2017-07-24T01:34:08.643Z,0
2017-07-24T01:35:09.896Z,0
2017-07-24T01:36:11.139Z,0
2017-07-24T01:37:12.481Z,0
2017-07-24T01:38:13.721Z,0
2017-07-24T01:39:14.977Z,0
2017-07-24T01:40:16.217Z,0
2017-07-24T01:41:17.446Z,0
2017-07-24T01:42:18.682Z,0
2017-07-24T01:43:19.937Z,0
2017-07-24T01:44:21.186Z,0
2017-07-24T01:45:22.510Z,0
2017-07-24T01:46:23.757Z,0
2017-07-24T01:47:24.982Z,0
2017-07-24T01:48:26.231Z,0
2017-07-24T01:49:27.582Z,0
2017-07-24T01:50:28.870Z,0
2017-07-24T01:51:30.110Z,0
2017-07-24T01:52:31.340Z,0
2017-07-24T01:53:32.570Z,0
2017-07-24T01:54:33.806Z,0
2017-07-24T01:55:35.044Z,0
2017-07-24T01:56:36.297Z,0
2017-07-24T01:57:37.511Z,0
2017-07-24T01:58:38.871Z,0
2017-07-24T01:59:40.103Z,0
2017-07-24T02:00:41.364Z,0
2017-07-24T02:01:42.601Z,0
2017-07-24T02:02:43.859Z,0
2017-07-24T02:03:45.083Z,0
2017-07-24T02:04:46.308Z,0
2017-07-24T02:05:47.543Z,0
2017-07-24T02:06:48.894Z,0
2017-07-24T02:07:50.131Z,0
2017-07-24T02:08:51.453Z,0
2017-07-24T02:09:52.809Z,0
2017-07-24T02:10:54.041Z,0
2017-07-24T02:11:55.281Z,0
2017-07-24T02:12:56.571Z,0
2017-07-24T02:13:57.776Z,0
2017-07-24T02:14:59.085Z,0
2017-07-24T02:16:00.329Z,0
2017-07-24T02:17:01.636Z,0
2017-07-24T02:18:02.867Z,0
2017-07-24T02:19:04.093Z,0
2017-07-24T02:20:05.331Z,0
2017-07-24T02:21:06.582Z,0
2017-07-24T02:22:07.902Z,0
2017-07-24T02:23:09.142Z,0
2017-07-24T02:24:10.378Z,0
2017-07-24T02:25:11.609Z,0
2017-07-24T02:26:12.846Z,0
2017-07-24T02:27:14.217Z,0
2017-07-24T02:28:15.485Z,0
2017-07-24T02:29:16.765Z,0
2017-07-24T02:30:17.991Z,0
2017-07-24T02:31:19.226Z,0
2017-07-24T02:32:20.602Z,0
2017-07-24T02:33:21.739Z,0
2017-07-24T02:34:22.988Z,0
2017-07-24T02:35:24.220Z,0
2017-07-24T02:36:25.456Z,0
2017-07-24T02:37:26.698Z,0
2017-07-24T02:38:27.934Z,0
2017-07-24T02:39:29.181Z,0
2017-07-24T02:40:30.438Z,0
2017-07-24T02:41:31.689Z,0
2017-07-24T02:42:32.973Z,0
2017-07-24T02:43:34.210Z,0
2017-07-24T02:44:35.445Z,0
2017-07-24T02:45:36.682Z,0
2017-07-24T02:46:37.915Z,0
2017-07-24T02:47:39.155Z,0
2017-07-24T02:48:40.401Z,0
2017-07-24T02:49:41.634Z,0
2017-07-24T02:50:42.890Z,0
2017-07-24T02:51:44.135Z,0
2017-07-24T02:52:45.444Z,0
2017-07-24T02:53:46.783Z,0
2017-07-24T02:54:48.012Z,0
2017-07-24T02:55:49.297Z,0
2017-07-24T02:56:50.537Z,0
2017-07-24T02:57:51.783Z,0
2017-07-24T02:58:53.135Z,0
2017-07-24T02:59:54.487Z,0
2017-07-24T03:00:55.774Z,0
2017-07-24T03:01:57.020Z,0
2017-07-24T03:02:58.259Z,0
2017-07-24T03:03:59.480Z,0
2017-07-24T03:05:00.728Z,0
2017-07-24T03:06:02.045Z,0
2017-07-24T03:07:03.328Z,0
2017-07-24T03:08:04.557Z,0
2017-07-24T03:09:05.796Z,0
2017-07-24T03:10:07.064Z,0
2017-07-24T03:11:08.320Z,0
2017-07-24T03:12:09.560Z,0
2017-07-24T03:13:10.902Z,0
2017-07-24T03:14:12.136Z,0
2017-07-24T03:15:13.369Z,0
2017-07-24T03:16:14.615Z,0
2017-07-24T03:17:15.850Z,0
2017-07-24T03:18:17.088Z,0
2017-07-24T03:19:18.440Z,0
2017-07-24T03:20:19.678Z,0
2017-07-24T03:21:20.917Z,0
2017-07-24T03:22:22.148Z,0
2017-07-24T03:23:23.400Z,0
2017-07-24T03:24:24.610Z,0
2017-07-24T03:25:25.852Z,0
2017-07-24T03:26:27.091Z,0
2017-07-24T03:27:28.342Z,0
2017-07-24T03:28:29.570Z,0
2017-07-24T03:29:30.863Z,0
2017-07-24T03:30:32.097Z,0
2017-07-24T03:31:33.450Z,0
2017-07-24T03:32:34.814Z,0
2017-07-24T03:33:36.049Z,0
2017-07-24T03:34:37.292Z,0
2017-07-24T03:35:38.537Z,0
2017-07-24T03:36:39.846Z,0
2017-07-24T03:37:41.161Z,0
2017-07-24T03:38:42.470Z,0
2017-07-24T03:39:43.709Z,0
2017-07-24T03:40:44.955Z,0
2017-07-24T03:41:46.190Z,0
2017-07-24T03:42:47.421Z,0
2017-07-24T03:43:48.748Z,0
2017-07-24T03:44:49.974Z,0
2017-07-24T03:45:51.215Z,5
2017-07-24T03:46:52.450Z,5
2017-07-24T03:47:53.684Z,5
2017-07-24T03:48:55.054Z,5
2017-07-24T03:49:56.319Z,5
2017-07-24T03:50:57.563Z,5
2017-07-24T03:51:58.802Z,5
2017-07-24T03:53:00.033Z,5
2017-07-24T03:54:01.298Z,5
2017-07-24T03:55:02.839Z,5
2017-07-24T03:56:04.027Z,5
2017-07-24T03:57:05.267Z,5
2017-07-24T03:58:06.504Z,10
2017-07-24T03:59:07.741Z,10
2017-07-24T04:00:08.980Z,10
2017-07-24T04:01:10.217Z,10
2017-07-24T04:02:11.526Z,10
2017-07-24T04:03:12.868Z,10
2017-07-24T04:04:14.103Z,10
2017-07-24T04:05:15.437Z,10
2017-07-24T04:06:16.798Z,10
2017-07-24T04:07:17.935Z,15
2017-07-24T04:08:19.264Z,15
2017-07-24T04:09:20.494Z,15
2017-07-24T04:10:21.730Z,15
2017-07-24T04:11:22.975Z,15
2017-07-24T04:12:24.210Z,20
2017-07-24T04:13:25.446Z,20
2017-07-24T04:14:26.690Z,20
2017-07-24T04:15:27.977Z,25
2017-07-24T04:16:29.220Z,25
2017-07-24T04:17:30.453Z,25
2017-07-24T04:18:31.704Z,25
2017-07-24T04:19:32.945Z,25
2017-07-24T04:20:34.533Z,30
2017-07-24T04:21:35.681Z,30
2017-07-24T04:22:36.980Z,35
2017-07-24T04:23:38.228Z,35
2017-07-24T04:24:39.457Z,40
2017-07-24T04:25:40.718Z,45
2017-07-24T04:26:41.924Z,50
2017-07-24T04:27:43.292Z,50
2017-07-24T04:28:44.642Z,45
2017-07-24T04:29:45.868Z,45
2017-07-24T04:30:47.101Z,45
2017-07-24T04:31:48.403Z,50
2017-07-24T04:32:49.633Z,50
2017-07-24T04:33:50.954Z,45
2017-07-24T04:34:52.192Z,45
2017-07-24T04:35:53.481Z,50
2017-07-24T04:36:54.723Z,45
2017-07-24T04:37:55.952Z,45
2017-07-24T04:38:57.193Z,40
2017-07-24T04:39:58.534Z,40
2017-07-24T04:40:59.787Z,40
2017-07-24T04:42:01.024Z,40
2017-07-24T04:43:02.263Z,45
2017-07-24T04:44:03.500Z,45
2017-07-24T04:45:04.739Z,50
2017-07-24T04:46:05.964Z,55
2017-07-24T04:47:07.337Z,55
2017-07-24T04:48:08.559Z,55
2017-07-24T04:49:09.805Z,55
2017-07-24T04:50:11.048Z,55
2017-07-24T04:51:12.373Z,55
2017-07-24T04:52:13.607Z,50
2017-07-24T04:53:14.905Z,45
2017-07-24T04:54:16.144Z,40
2017-07-24T04:55:17.385Z,40
2017-07-24T04:56:18.695Z,40
2017-07-24T04:57:19.931Z,40
2017-07-24T04:58:21.257Z,40
2017-07-24T04:59:22.505Z,45
2017-07-24T05:00:23.760Z,45
2017-07-24T05:01:25.025Z,45
2017-07-24T05:02:26.262Z,45
2017-07-24T05:03:27.510Z,45
2017-07-24T05:04:28.755Z,40
2017-07-24T05:05:30.051Z,35
2017-07-24T05:06:31.287Z,35
2017-07-24T05:07:32.543Z,40
2017-07-24T05:08:33.810Z,45
2017-07-24T05:09:35.184Z,45
2017-07-24T05:10:36.426Z,50
2017-07-24T05:11:37.648Z,55
2017-07-24T05:12:38.882Z,60
2017-07-24T05:13:40.124Z,65
2017-07-24T05:14:41.353Z,65
2017-07-24T05:15:42.620Z,65
2017-07-24T05:16:43.858Z,60
2017-07-24T05:17:45.091Z,55
2017-07-24T05:18:46.375Z,55
2017-07-24T05:19:47.671Z,60
2017-07-24T05:20:48.909Z,60
2017-07-24T05:21:50.158Z,60
2017-07-24T05:22:51.400Z,60
2017-07-24T05:23:52.659Z,55
2017-07-24T05:24:53.913Z,55
2017-07-24T05:25:55.208Z,50
2017-07-24T05:26:56.444Z,50
2017-07-24T05:27:57.680Z,50
2017-07-24T05:28:58.933Z,45
2017-07-24T05:30:00.515Z,45
2017-07-24T05:31:01.758Z,45
2017-07-24T05:32:03.078Z,50
2017-07-24T05:33:04.316Z,55
2017-07-24T05:34:05.555Z,55
2017-07-24T05:35:06.822Z,55
2017-07-24T05:36:08.099Z,55
2017-07-24T05:37:09.363Z,55
2017-07-24T05:38:10.602Z,55
2017-07-24T05:39:11.840Z,55
2017-07-24T05:40:13.079Z,55
2017-07-24T05:41:14.320Z,50
2017-07-24T05:42:15.659Z,55
2017-07-24T05:43:16.910Z,55
2017-07-24T05:44:18.145Z,50
2017-07-24T05:45:19.386Z,55
2017-07-24T05:46:20.617Z,55
2017-07-24T05:47:21.855Z,55
2017-07-24T05:48:23.085Z,55
2017-07-24T05:49:24.312Z,55
2017-07-24T05:50:25.571Z,55
2017-07-24T05:51:26.800Z,65
2017-07-24T05:52:28.035Z,80
2017-07-24T05:53:29.268Z,85
2017-07-24T05:54:30.518Z,90
2017-07-24T05:55:31.761Z,90
2017-07-24T05:56:33.093Z,85
2017-07-24T05:57:34.335Z,80
2017-07-24T05:58:35.572Z,80
2017-07-24T05:59:36.909Z,80
2017-07-24T06:00:38.139Z,75
2017-07-24T06:01:39.422Z,75
2017-07-24T06:02:40.661Z,70
2017-07-24T06:03:41.901Z,70
2017-07-24T06:04:43.136Z,70
2017-07-24T06:05:44.368Z,80
2017-07-24T06:06:45.598Z,80
2017-07-24T06:07:46.856Z,80
2017-07-24T06:08:48.098Z,80
2017-07-24T06:09:49.344Z,85
2017-07-24T06:10:50.572Z,75
2017-07-24T06:11:51.814Z,70
2017-07-24T06:12:53.093Z,60
2017-07-24T06:13:54.309Z,60
2017-07-24T06:14:55.562Z,70
2017-07-24T06:15:56.805Z,85
2017-07-24T06:16:58.056Z,90
2017-07-24T06:17:59.365Z,100
2017-07-24T06:19:00.597Z,85
2017-07-24T06:20:01.847Z,80
2017-07-24T06:21:03.146Z,85
2017-07-24T06:22:04.405Z,80
2017-07-24T06:23:05.644Z,80
2017-07-24T06:24:06.881Z,80
2017-07-24T06:25:08.118Z,80
2017-07-24T06:26:09.361Z,80
2017-07-24T06:27:10.621Z,90
2017-07-24T06:28:11.836Z,100
2017-07-24T06:29:13.126Z,100
2017-07-24T06:30:14.365Z,130
2017-07-24T06:31:15.606Z,140
2017-07-24T06:32:16.953Z,130
2017-07-24T06:33:18.184Z,135
2017-07-24T06:34:19.460Z,165
2017-07-24T06:35:20.681Z,160
2017-07-24T06:36:21.917Z,150
2017-07-24T06:37:23.260Z,150
2017-07-24T06:38:24.506Z,150
2017-07-24T06:39:25.799Z,150
2017-07-24T06:40:27.050Z,140
2017-07-24T06:41:28.308Z,140
2017-07-24T06:42:29.544Z,135
2017-07-24T06:43:30.785Z,135
2017-07-24T06:44:32.024Z,130
2017-07-24T06:45:33.362Z,125
2017-07-24T06:46:34.603Z,120
2017-07-24T06:47:35.881Z,135
2017-07-24T06:48:37.188Z,135
2017-07-24T06:49:38.426Z,125
2017-07-24T06:50:39.666Z,130
2017-07-24T06:51:40.922Z,140
2017-07-24T06:52:42.174Z,130
2017-07-24T06:53:43.425Z,120
2017-07-24T06:54:44.739Z,95
2017-07-24T06:55:45.985Z,90
2017-07-24T06:56:47.224Z,105
2017-07-24T06:57:48.451Z,100
2017-07-24T06:58:49.689Z,105
2017-07-24T06:59:50.933Z,135
2017-07-24T07:00:52.168Z,180
2017-07-24T07:01:53.415Z,195
2017-07-24T07:02:54.652Z,205
2017-07-24T07:03:55.889Z,190
2017-07-24T07:04:57.164Z,185
2017-07-24T07:05:58.665Z,205
2017-07-24T07:06:59.924Z,215
2017-07-24T07:08:01.182Z,205
2017-07-24T07:09:02.431Z,225
2017-07-24T07:10:03.659Z,240
2017-07-24T07:11:04.892Z,220
2017-07-24T07:12:06.119Z,250
2017-07-24T07:13:07.366Z,265
2017-07-24T07:14:08.619Z,260
2017-07-24T07:15:09.864Z,250
2017-07-24T07:16:11.187Z,235
2017-07-24T07:17:12.424Z,225
2017-07-24T07:18:13.651Z,225
2017-07-24T07:19:14.891Z,210
2017-07-24T07:20:16.140Z,180
2017-07-24T07:21:17.429Z,165
2017-07-24T07:22:18.674Z,155
2017-07-24T07:23:19.926Z,155
2017-07-24T07:24:21.179Z,170
2017-07-24T07:25:22.425Z,170
2017-07-24T07:26:23.686Z,165
2017-07-24T07:27:24.931Z,165
2017-07-24T07:28:26.163Z,155
2017-07-24T07:29:27.407Z,145
2017-07-24T07:30:28.762Z,145
2017-07-24T07:31:30.003Z,140
2017-07-24T07:32:31.434Z,135
2017-07-24T07:33:32.663Z,130
2017-07-24T07:34:33.912Z,125
2017-07-24T07:35:35.150Z,125
2017-07-24T07:36:36.392Z,130
2017-07-24T07:37:37.668Z,135
2017-07-24T07:38:38.914Z,140
2017-07-24T07:39:40.155Z,155
2017-07-24T07:40:41.392Z,160
2017-07-24T07:41:42.642Z,170
2017-07-24T07:42:43.893Z,175
2017-07-24T07:43:45.138Z,180
2017-07-24T07:44:46.378Z,185
2017-07-24T07:45:47.624Z,185
2017-07-24T07:46:48.976Z,190
2017-07-24T07:47:50.214Z,195
2017-07-24T07:48:51.456Z,200
2017-07-24T07:49:52.695Z,200
2017-07-24T07:50:53.932Z,205
2017-07-24T07:51:55.175Z,215
2017-07-24T07:52:56.422Z,220
2017-07-24T07:53:57.660Z,220
2017-07-24T07:54:58.901Z,225
2017-07-24T07:56:00.149Z,230
2017-07-24T07:57:01.456Z,230
2017-07-24T07:58:02.678Z,235
2017-07-24T07:59:03.966Z,240
2017-07-24T08:00:05.231Z,245
2017-07-24T08:01:06.471Z,240
2017-07-24T08:02:07.701Z,240
2017-07-24T08:03:08.945Z,240
2017-07-24T08:04:10.265Z,240
2017-07-24T08:05:11.693Z,240
2017-07-24T08:06:13.014Z,240
2017-07-24T08:07:14.259Z,240
2017-07-24T08:08:15.501Z,240
2017-07-24T08:09:16.742Z,245
2017-07-24T08:10:17.974Z,245
2017-07-24T08:11:19.204Z,250
2017-07-24T08:12:20.448Z,250
2017-07-24T08:13:21.685Z,250
2017-07-24T08:14:22.929Z,250
2017-07-24T08:15:24.158Z,250
2017-07-24T08:16:25.410Z,245
2017-07-24T08:17:26.657Z,240
2017-07-24T08:18:27.954Z,235
2017-07-24T08:19:29.192Z,225
2017-07-24T08:20:30.433Z,220
2017-07-24T08:21:31.668Z,215
2017-07-24T08:22:32.964Z,215
2017-07-24T08:23:34.281Z,215
2017-07-24T08:24:35.521Z,215
2017-07-24T08:25:36.764Z,220
2017-07-24T08:26:38.000Z,225
2017-07-24T08:27:39.230Z,225
2017-07-24T08:28:40.557Z,235
2017-07-24T08:29:41.820Z,240
2017-07-24T08:30:43.075Z,240
2017-07-24T08:31:44.297Z,235
2017-07-24T08:32:45.546Z,235
2017-07-24T08:33:46.853Z,235
2017-07-24T08:34:48.053Z,240
2017-07-24T08:35:49.344Z,240
2017-07-24T08:36:50.595Z,245
2017-07-24T08:37:51.900Z,250
2017-07-24T08:38:53.161Z,255
2017-07-24T08:39:54.398Z,260
2017-07-24T08:40:55.638Z,265
2017-07-24T08:41:57.028Z,270
2017-07-24T08:42:58.263Z,275
2017-07-24T08:43:59.638Z,285
2017-07-24T08:45:00.876Z,285
2017-07-24T08:46:02.116Z,300
2017-07-24T08:47:03.355Z,310
2017-07-24T08:48:04.592Z,320
2017-07-24T08:49:05.835Z,335
2017-07-24T08:50:07.072Z,345
2017-07-24T08:51:08.315Z,355
2017-07-24T08:52:09.548Z,355
2017-07-24T08:53:10.891Z,355
2017-07-24T08:54:12.110Z,355
2017-07-24T08:55:13.355Z,355
2017-07-24T08:56:14.597Z,355
2017-07-24T08:57:15.826Z,355
2017-07-24T08:58:17.121Z,355
2017-07-24T08:59:18.350Z,355
2017-07-24T09:00:19.618Z,355
2017-07-24T09:01:20.939Z,355
2017-07-24T09:02:22.181Z,355
2017-07-24T09:03:23.416Z,355
2017-07-24T09:04:24.659Z,355
2017-07-24T09:05:25.907Z,360
2017-07-24T09:06:27.175Z,365
2017-07-24T09:07:28.446Z,370
2017-07-24T09:08:29.739Z,375
2017-07-24T09:09:30.990Z,375
2017-07-24T09:10:32.225Z,375
2017-07-24T09:11:33.472Z,375
2017-07-24T09:12:34.852Z,370
2017-07-24T09:13:36.098Z,370
2017-07-24T09:14:37.330Z,370
2017-07-24T09:15:38.568Z,370
2017-07-24T09:16:39.811Z,370
2017-07-24T09:17:41.159Z,365
2017-07-24T09:18:42.395Z,360
2017-07-24T09:19:43.718Z,355
2017-07-24T09:20:44.967Z,355
2017-07-24T09:21:46.212Z,355
2017-07-24T09:22:47.460Z,350
2017-07-24T09:23:48.702Z,350
2017-07-24T09:24:49.949Z,355
2017-07-24T09:25:51.190Z,360
2017-07-24T09:26:52.427Z,360
2017-07-24T09:27:53.667Z,360
2017-07-24T09:28:54.908Z,360
2017-07-24T09:29:56.162Z,360
2017-07-24T09:30:57.400Z,345
2017-07-24T09:31:58.746Z,315
2017-07-24T09:32:59.990Z,290
2017-07-24T09:34:01.253Z,275
2017-07-24T09:35:02.518Z,270
2017-07-24T09:36:03.749Z,260
2017-07-24T09:37:04.998Z,270
2017-07-24T09:38:06.236Z,270
2017-07-24T09:39:07.574Z,275
2017-07-24T09:40:08.879Z,280
2017-07-24T09:41:10.118Z,295
2017-07-24T09:42:11.379Z,315
2017-07-24T09:43:12.611Z,335
2017-07-24T09:44:13.852Z,350
2017-07-24T09:45:15.149Z,350
2017-07-24T09:46:16.393Z,355
2017-07-24T09:47:17.630Z,355
2017-07-24T09:48:18.888Z,360
2017-07-24T09:49:20.124Z,355
2017-07-24T09:50:21.445Z,350
2017-07-24T09:51:22.685Z,345
2017-07-24T09:52:23.935Z,345
2017-07-24T09:53:25.165Z,345
2017-07-24T09:54:26.411Z,345
2017-07-24T09:55:27.647Z,345
2017-07-24T09:56:28.963Z,345
2017-07-24T09:57:30.122Z,340
2017-07-24T09:58:31.470Z,340
2017-07-24T09:59:32.798Z,340
2017-07-24T10:00:34.051Z,345
2017-07-24T10:01:35.289Z,345
2017-07-24T10:02:36.532Z,350
2017-07-24T10:03:37.766Z,350
2017-07-24T10:04:39.013Z,355
2017-07-24T10:05:40.249Z,355
2017-07-24T10:06:41.533Z,355
2017-07-24T10:07:42.798Z,355
2017-07-24T10:08:44.042Z,355
2017-07-24T10:09:45.392Z,360
2017-07-24T10:10:46.685Z,360
2017-07-24T10:11:47.949Z,360
2017-07-24T10:12:49.196Z,375
2017-07-24T10:13:50.446Z,380
2017-07-24T10:14:51.695Z,395
2017-07-24T10:15:52.945Z,415
2017-07-24T10:16:54.194Z,430
2017-07-24T10:17:55.438Z,440
2017-07-24T10:18:56.696Z,445
2017-07-24T10:19:57.920Z,450
2017-07-24T10:20:59.160Z,450
2017-07-24T10:22:00.407Z,450
2017-07-24T10:23:01.674Z,445
2017-07-24T10:24:02.983Z,450
2017-07-24T10:25:04.226Z,450
2017-07-24T10:26:05.493Z,445
2017-07-24T10:27:06.734Z,435
2017-07-24T10:28:07.963Z,430
2017-07-24T10:29:09.212Z,420
2017-07-24T10:30:10.533Z,415
2017-07-24T10:31:11.792Z,410
2017-07-24T10:32:13.031Z,410
2017-07-24T10:33:14.267Z,415
2017-07-24T10:34:15.507Z,425
2017-07-24T10:35:16.848Z,440
2017-07-24T10:36:18.086Z,460
2017-07-24T10:37:19.356Z,470
2017-07-24T10:38:20.597Z,485
2017-07-24T10:39:21.844Z,500
2017-07-24T10:40:23.137Z,515
2017-07-24T10:41:24.395Z,535
2017-07-24T10:42:25.618Z,555
2017-07-24T10:43:26.911Z,570
2017-07-24T10:44:28.187Z,590
2017-07-24T10:45:29.471Z,610
2017-07-24T10:46:30.686Z,630
2017-07-24T10:47:31.922Z,645
2017-07-24T10:48:33.286Z,670
2017-07-24T10:49:34.507Z,690
2017-07-24T10:50:35.749Z,705
2017-07-24T10:51:37.003Z,725
2017-07-24T10:52:38.243Z,725
2017-07-24T10:53:39.477Z,730
2017-07-24T10:54:40.830Z,725
2017-07-24T10:55:42.067Z,715
2017-07-24T10:56:43.296Z,700
2017-07-24T10:57:44.541Z,695
2017-07-24T10:58:45.777Z,680
2017-07-24T10:59:47.056Z,675
2017-07-24T11:00:48.298Z,670
2017-07-24T11:01:49.545Z,655
2017-07-24T11:02:50.790Z,645
2017-07-24T11:03:52.049Z,635
2017-07-24T11:04:53.358Z,615
2017-07-24T11:05:54.584Z,580
2017-07-24T11:06:55.819Z,560
2017-07-24T11:07:57.168Z,560
2017-07-24T11:08:58.516Z,560
2017-07-24T11:09:59.757Z,565
2017-07-24T11:11:01.010Z,585
2017-07-24T11:12:02.243Z,615
2017-07-24T11:13:03.498Z,625
2017-07-24T11:14:04.753Z,635
2017-07-24T11:15:05.980Z,625
2017-07-24T11:16:07.301Z,610
2017-07-24T11:17:08.541Z,625
2017-07-24T11:18:09.788Z,630
2017-07-24T11:19:11.033Z,610
2017-07-24T11:20:12.258Z,610
2017-07-24T11:21:13.498Z,610
2017-07-24T11:22:14.845Z,590
2017-07-24T11:23:16.081Z,615
2017-07-24T11:24:17.346Z,655
2017-07-24T11:25:18.585Z,685
2017-07-24T11:26:19.827Z,660
2017-07-24T11:27:21.127Z,595
2017-07-24T11:28:22.363Z,545
2017-07-24T11:29:23.618Z,530
2017-07-24T11:30:24.868Z,505
2017-07-24T11:31:26.095Z,475
2017-07-24T11:32:27.336Z,480
2017-07-24T11:33:28.606Z,515
2017-07-24T11:34:29.866Z,525
2017-07-24T11:35:31.130Z,510
2017-07-24T11:36:32.366Z,500
2017-07-24T11:37:33.644Z,515
2017-07-24T11:38:34.891Z,545
2017-07-24T11:39:36.147Z,590
2017-07-24T11:40:37.407Z,610
2017-07-24T11:41:38.660Z,615
2017-07-24T11:42:39.910Z,615
2017-07-24T11:43:41.235Z,640
2017-07-24T11:44:42.472Z,645
2017-07-24T11:45:43.713Z,650
2017-07-24T11:46:44.952Z,635
2017-07-24T11:47:46.192Z,620
2017-07-24T11:48:47.492Z,600
2017-07-24T11:49:48.729Z,575
2017-07-24T11:50:49.972Z,560
2017-07-24T11:51:51.303Z,530
2017-07-24T11:52:52.663Z,480
2017-07-24T11:53:53.901Z,405
2017-07-24T11:54:55.137Z,340
2017-07-24T11:55:56.362Z,320
2017-07-24T11:56:57.604Z,315
2017-07-24T11:57:58.841Z,320
2017-07-24T11:59:00.081Z,335
2017-07-24T12:00:01.311Z,345
2017-07-24T12:01:02.563Z,365
2017-07-24T12:02:03.811Z,390
2017-07-24T12:03:05.065Z,405
2017-07-24T12:04:06.305Z,455
2017-07-24T12:05:07.557Z,510
2017-07-24T12:06:08.877Z,570
2017-07-24T12:07:10.103Z,610
2017-07-24T12:08:11.352Z,655
2017-07-24T12:09:12.615Z,700
2017-07-24T12:10:13.830Z,715
2017-07-24T12:11:15.179Z,680
2017-07-24T12:12:16.420Z,625
2017-07-24T12:13:17.672Z,620
2017-07-24T12:14:18.989Z,580
2017-07-24T12:15:20.225Z,505
2017-07-24T12:16:21.487Z,490
2017-07-24T12:17:22.729Z,525
2017-07-24T12:18:23.975Z,590
2017-07-24T12:19:25.215Z,665
2017-07-24T12:20:26.454Z,705
2017-07-24T12:21:27.733Z,735
2017-07-24T12:22:28.973Z,750
2017-07-24T12:23:30.214Z,755
2017-07-24T12:24:31.460Z,745
2017-07-24T12:25:32.697Z,735
2017-07-24T12:26:33.940Z,700
2017-07-24T12:27:35.185Z,680
2017-07-24T12:28:36.422Z,715
2017-07-24T12:29:37.667Z,770
2017-07-24T12:30:39.020Z,835
2017-07-24T12:31:40.263Z,870
2017-07-24T12:32:41.508Z,885
2017-07-24T12:33:42.759Z,860
2017-07-24T12:34:44.007Z,830
2017-07-24T12:35:45.281Z,795
2017-07-24T12:36:46.526Z,770
2017-07-24T12:37:47.846Z,765
2017-07-24T12:38:49.089Z,770
2017-07-24T12:39:50.367Z,770
2017-07-24T12:40:51.715Z,770
2017-07-24T12:41:52.946Z,780
2017-07-24T12:42:54.191Z,795
2017-07-24T12:43:55.457Z,815
2017-07-24T12:44:56.707Z,830
2017-07-24T12:45:58.031Z,850
2017-07-24T12:46:59.281Z,860
2017-07-24T12:48:00.537Z,865
2017-07-24T12:49:01.779Z,855
2017-07-24T12:50:03.077Z,830
2017-07-24T12:51:04.367Z,805
2017-07-24T12:52:05.607Z,765
2017-07-24T12:53:06.853Z,740
2017-07-24T12:54:08.117Z,720
2017-07-24T12:55:09.342Z,695
2017-07-24T12:56:10.578Z,685
2017-07-24T12:57:11.802Z,680
2017-07-24T12:58:13.058Z,675
2017-07-24T12:59:14.297Z,675
2017-07-24T13:00:15.536Z,675
2017-07-24T13:01:16.784Z,655
2017-07-24T13:02:18.024Z,640
2017-07-24T13:03:19.323Z,655
2017-07-24T13:04:20.573Z,660
2017-07-24T13:05:21.811Z,675
2017-07-24T13:06:23.049Z,680
2017-07-24T13:07:24.295Z,675
2017-07-24T13:08:25.528Z,680
2017-07-24T13:09:26.798Z,685
2017-07-24T13:10:28.019Z,695
2017-07-24T13:11:29.367Z,700
2017-07-24T13:12:30.605Z,700
2017-07-24T13:13:31.855Z,705
2017-07-24T13:14:33.229Z,705
2017-07-24T13:15:34.373Z,710
2017-07-24T13:16:35.712Z,710
2017-07-24T13:17:37.004Z,700
2017-07-24T13:18:38.246Z,690
2017-07-24T13:19:39.624Z,675
2017-07-24T13:20:40.848Z,650
2017-07-24T13:21:42.204Z,625
2017-07-24T13:22:43.449Z,590
2017-07-24T13:23:44.775Z,590
2017-07-24T13:24:46.013Z,610
2017-07-24T13:25:47.252Z,630
2017-07-24T13:26:48.489Z,645
2017-07-24T13:27:49.819Z,655
2017-07-24T13:28:51.102Z,660
2017-07-24T13:29:52.340Z,660
2017-07-24T13:30:53.621Z,670
2017-07-24T13:31:54.856Z,670
2017-07-24T13:32:56.098Z,670
2017-07-24T13:33:57.352Z,670
2017-07-24T13:34:58.663Z,675
2017-07-24T13:35:59.913Z,685
2017-07-24T13:37:01.199Z,680
2017-07-24T13:38:02.435Z,680
2017-07-24T13:39:03.672Z,685
2017-07-24T13:40:04.940Z,690
2017-07-24T13:41:06.167Z,695
2017-07-24T13:42:07.478Z,695
2017-07-24T13:43:08.725Z,700
2017-07-24T13:44:09.987Z,700
2017-07-24T13:45:11.246Z,705
2017-07-24T13:46:12.492Z,710
2017-07-24T13:47:13.754Z,700
2017-07-24T13:48:15.081Z,700
2017-07-24T13:49:16.323Z,700
2017-07-24T13:50:17.588Z,700
2017-07-24T13:51:18.821Z,700
2017-07-24T13:52:20.071Z,700
2017-07-24T13:53:21.431Z,695
2017-07-24T13:54:22.696Z,690
2017-07-24T13:55:23.966Z,685
2017-07-24T13:56:25.251Z,680
2017-07-24T13:57:26.496Z,675
2017-07-24T13:58:27.749Z,670
2017-07-24T13:59:28.999Z,660
2017-07-24T14:00:30.252Z,655
2017-07-24T14:01:31.507Z,650
2017-07-24T14:02:32.751Z,640
2017-07-24T14:03:34.003Z,635
2017-07-24T14:04:35.329Z,635
2017-07-24T14:05:36.587Z,635
2017-07-24T14:06:37.911Z,630
2017-07-24T14:07:39.237Z,625
2017-07-24T14:08:40.475Z,625
2017-07-24T14:09:41.715Z,625
2017-07-24T14:10:42.981Z,625
2017-07-24T14:11:44.283Z,625
2017-07-24T14:12:45.531Z,620
2017-07-24T14:13:46.786Z,615
2017-07-24T14:14:48.112Z,615
2017-07-24T14:15:49.337Z,615
2017-07-24T14:16:50.583Z,615
2017-07-24T14:17:51.836Z,625
2017-07-24T14:18:53.144Z,640
2017-07-24T14:19:54.396Z,640
2017-07-24T14:20:55.639Z,640
2017-07-24T14:21:56.880Z,650
2017-07-24T14:22:58.123Z,650
2017-07-24T14:23:59.407Z,655
2017-07-24T14:25:00.677Z,655